Time;durP1;ratioP1;P1;durP2;ratioP2;P2;SDS_P1;SDS_P2;PMS_P1;PMS_P2;Temp;Humidity;BMP_temperature;BMP_pressure;BME280_temperature;BME280_humidity;BME280_pressure;Samples;Min_cycle;Max_cycle;Signal;HPM_P1;HPM_P2
2022/12/18 00:00:43;;;;;;;34.00;15.13;;;-0.10;99.90;;;;;;4112859;28;20324;-60
2022/12/18 00:02:44;;;;;;;34.90;15.60;;;-0.10;99.90;;;;;;4112489;28;20292;-59
2022/12/18 00:04:45;;;;;;;36.90;15.77;;;-0.10;99.90;;;;;;4112543;28;20261;-58
2022/12/18 00:06:47;;;;;;;34.93;16.53;;;-0.10;99.90;;;;;;4112389;28;20685;-59
2022/12/18 00:08:48;;;;;;;36.40;16.37;;;-0.10;99.90;;;;;;4113420;28;20260;-57
2022/12/18 00:10:49;;;;;;;37.37;15.27;;;-0.10;99.90;;;;;;4112213;28;20276;-60
2022/12/18 00:12:50;;;;;;;33.33;15.83;;;-0.10;99.90;;;;;;4113278;28;20327;-61
2022/12/18 00:14:52;;;;;;;38.73;16.20;;;-0.10;99.90;;;;;;4112263;28;20264;-60
2022/12/18 00:16:53;;;;;;;36.80;15.77;;;-0.10;99.90;;;;;;4112666;28;20332;-60
2022/12/18 00:18:58;;;;;;;31.27;15.13;;;-0.10;99.90;;;;;;4110838;28;20277;-61
2022/12/18 00:21:01;;;;;;;36.90;15.87;;;0.00;99.90;;;;;;4112362;28;20281;-56
2022/12/18 00:23:02;;;;;;;35.00;16.10;;;0.00;99.90;;;;;;4112655;28;20665;-59
2022/12/18 00:25:04;;;;;;;38.33;15.77;;;0.10;99.90;;;;;;4113442;28;20257;-58
2022/12/18 00:27:05;;;;;;;31.97;15.20;;;0.00;99.90;;;;;;4111890;28;20277;-59
2022/12/18 00:29:11;;;;;;;41.17;17.67;;;0.00;99.90;;;;;;4112909;28;20319;-60
2022/12/18 00:31:15;;;;;;;35.27;15.67;;;0.00;99.90;;;;;;4112598;28;20265;-60
2022/12/18 00:33:17;;;;;;;41.90;17.50;;;0.00;99.90;;;;;;4112766;28;20344;-59
2022/12/18 00:35:18;;;;;;;39.07;17.53;;;0.00;99.90;;;;;;4112394;28;20689;-60
2022/12/18 00:37:19;;;;;;;40.37;19.40;;;0.00;99.90;;;;;;4112380;28;20316;-60
2022/12/18 00:39:21;;;;;;;40.30;18.03;;;0.00;99.90;;;;;;4111954;28;20344;-60
2022/12/18 00:43:42;;;;;;;40.53;19.15;;;0.10;99.90;;;;;;4112857;28;20320;-60
2022/12/18 00:45:44;;;;;;;40.03;18.13;;;0.00;99.90;;;;;;4110921;28;20054;-57
2022/12/18 00:47:45;;;;;;;40.63;17.33;;;0.00;99.90;;;;;;4113211;28;20278;-59
2022/12/18 00:49:46;;;;;;;42.27;19.20;;;0.10;99.90;;;;;;4111774;28;20280;-57
2022/12/18 00:51:48;;;;;;;41.47;17.73;;;0.10;99.90;;;;;;4095096;29;20317;-60
2022/12/18 00:53:49;;;;;;;39.83;17.77;;;0.10;99.90;;;;;;4093852;29;20269;-59
2022/12/18 00:55:50;;;;;;;38.50;17.27;;;0.00;99.90;;;;;;4113099;28;20308;-60
2022/12/18 00:57:52;;;;;;;36.13;16.80;;;0.00;99.90;;;;;;4110752;28;20276;-58
2022/12/18 00:59:53;;;;;;;40.13;18.27;;;0.10;99.90;;;;;;4112495;28;20339;-61
2022/12/18 01:01:54;;;;;;;37.27;18.13;;;0.10;99.90;;;;;;4110456;28;20288;-61
2022/12/18 01:04:00;;;;;;;42.77;18.93;;;0.10;99.90;;;;;;4111619;28;20681;-61
2022/12/18 01:06:09;;;;;;;36.83;18.37;;;0.20;99.90;;;;;;4110749;28;20277;-59
2022/12/18 01:08:10;;;;;;;39.43;17.00;;;0.10;99.90;;;;;;4112691;28;20665;-60
2022/12/18 01:10:12;;;;;;;35.47;16.93;;;0.20;99.90;;;;;;4111712;28;20269;-56
2022/12/18 01:12:13;;;;;;;35.93;17.23;;;0.20;99.90;;;;;;4111543;28;20339;-63
2022/12/18 01:14:15;;;;;;;38.63;18.03;;;0.30;99.90;;;;;;4112309;28;20257;-61
2022/12/18 01:16:17;;;;;;;39.73;17.47;;;0.30;99.90;;;;;;4111858;28;20709;-61
2022/12/18 01:18:18;;;;;;;37.23;16.60;;;0.30;99.90;;;;;;4111725;28;20299;-60
2022/12/18 01:20:19;;;;;;;43.27;18.43;;;0.30;99.90;;;;;;4110722;28;20324;-62
2022/12/18 01:22:20;;;;;;;35.83;17.77;;;0.30;99.90;;;;;;4111915;28;20323;-60
2022/12/18 01:24:21;;;;;;;34.10;17.13;;;0.30;99.90;;;;;;4111933;28;20280;-61
2022/12/18 01:26:24;;;;;;;36.97;16.37;;;0.30;99.90;;;;;;4112868;28;21159;-60
2022/12/18 01:28:25;;;;;;;35.33;15.40;;;0.30;99.90;;;;;;4111326;28;20327;-59
2022/12/18 01:30:26;;;;;;;30.60;15.63;;;0.30;99.90;;;;;;4112593;28;21193;-60
2022/12/18 01:32:30;;;;;;;35.03;15.93;;;0.40;99.90;;;;;;4110111;28;20688;-59
2022/12/18 01:34:31;;;;;;;36.57;17.03;;;0.40;99.90;;;;;;4111425;28;20327;-60
2022/12/18 01:36:38;;;;;;;34.73;16.30;;;0.40;99.90;;;;;;4111682;28;21104;-60
2022/12/18 01:38:39;;;;;;;37.33;17.47;;;0.40;99.90;;;;;;4111945;28;20285;-61
2022/12/18 01:40:40;;;;;;;40.13;17.77;;;0.40;99.90;;;;;;4111542;28;20726;-63
2022/12/18 01:42:41;;;;;;;37.47;16.80;;;0.50;99.90;;;;;;4093943;29;20336;-60
2022/12/18 01:45:13;;;;;;;39.90;16.73;;;0.50;99.90;;;;;;4110916;28;20284;-62
2022/12/18 01:47:20;;;;;;;35.00;16.23;;;0.50;99.90;;;;;;4113182;28;20323;-61
2022/12/18 01:49:21;;;;;;;38.90;15.20;;;0.40;99.90;;;;;;4113758;28;20281;-60
2022/12/18 01:51:22;;;;;;;38.67;18.40;;;0.50;99.90;;;;;;4114702;28;20331;-62
2022/12/18 01:53:24;;;;;;;38.77;16.83;;;0.50;99.90;;;;;;4113995;28;20760;-61
2022/12/18 01:55:29;;;;;;;35.40;17.90;;;0.40;99.90;;;;;;4113739;28;20355;-65
2022/12/18 01:57:30;;;;;;;38.53;16.00;;;0.50;99.90;;;;;;4114826;28;20669;-62
2022/12/18 01:59:33;;;;;;;35.10;16.73;;;0.50;99.90;;;;;;4114054;28;20366;-61
2022/12/18 02:01:37;;;;;;;38.90;17.40;;;0.50;99.90;;;;;;4113870;28;20281;-62
2022/12/18 02:03:42;;;;;;;33.20;15.83;;;0.50;99.90;;;;;;4113360;28;20339;-62
2022/12/18 02:05:55;;;;;;;39.27;16.17;;;0.50;99.90;;;;;;4114520;28;20355;-59
2022/12/18 02:08:03;;;;;;;36.37;17.43;;;0.50;99.90;;;;;;4113387;28;20273;-61
2022/12/18 02:10:17;;;;;;;44.60;18.47;;;0.50;99.90;;;;;;4115150;28;20316;-60
2022/12/18 02:12:24;;;;;;;48.47;20.83;;;0.50;99.90;;;;;;4112766;28;20292;-61
2022/12/18 02:14:40;;;;;;;40.00;18.10;;;0.50;99.90;;;;;;4115309;28;20257;-60
2022/12/18 02:16:46;;;;;;;35.40;17.80;;;0.50;99.90;;;;;;4113382;28;20332;-59
2022/12/18 02:18:53;;;;;;;38.27;17.67;;;0.50;99.90;;;;;;4097270;29;20332;-60
2022/12/18 02:21:20;;;;;;;33.93;16.77;;;0.50;99.90;;;;;;4098206;29;20281;-60
2022/12/18 02:23:39;;;;;;;33.97;15.90;;;0.50;99.90;;;;;;4099115;29;20781;-60
2022/12/18 02:25:59;;;;;;;32.63;15.73;;;0.40;99.90;;;;;;4111817;28;20276;-61
2022/12/18 02:28:04;;;;;;;33.43;15.43;;;0.40;99.90;;;;;;4114578;28;20311;-60
2022/12/18 02:30:07;;;;;;;34.60;15.50;;;0.40;99.90;;;;;;4113750;28;20794;-61
2022/12/18 02:32:15;;;;;;;34.73;16.10;;;0.30;99.90;;;;;;4114682;28;20733;-61
2022/12/18 02:34:18;;;;;;;37.77;17.13;;;0.30;99.90;;;;;;4114479;28;20757;-59
2022/12/18 02:36:22;;;;;;;40.20;17.50;;;0.30;99.90;;;;;;4113188;28;20308;-63
2022/12/18 02:38:24;;;;;;;34.97;16.87;;;0.30;99.90;;;;;;4098223;29;20262;-64
2022/12/18 02:40:28;;;;;;;35.23;17.23;;;0.30;99.90;;;;;;4098254;29;20352;-65
2022/12/18 02:42:29;;;;;;;37.57;17.33;;;0.20;99.90;;;;;;4097843;29;20301;-61
2022/12/18 02:44:30;;;;;;;32.60;16.13;;;0.30;99.90;;;;;;4106266;28;20284;-63
2022/12/18 02:46:51;;;;;;;38.30;16.73;;;0.30;99.90;;;;;;4113818;28;20288;-65
2022/12/18 02:48:57;;;;;;;53.00;24.73;;;0.30;99.90;;;;;;4114255;28;20327;-63
2022/12/18 02:51:17;;;;;;;42.30;20.30;;;0.30;99.90;;;;;;4113630;28;20479;-61
2022/12/18 02:53:36;;;;;;;39.67;18.40;;;0.30;99.90;;;;;;4114934;28;20296;-61
2022/12/18 02:55:49;;;;;;;42.77;18.87;;;0.30;99.90;;;;;;4113275;28;20299;-63
2022/12/18 02:57:58;;;;;;;37.90;15.47;;;0.30;99.90;;;;;;4114249;28;20272;-57
2022/12/18 03:00:16;;;;;;;37.77;14.70;;;0.30;99.90;;;;;;4113760;28;20260;-62
2022/12/18 03:02:47;;;;;;;36.13;14.53;;;0.20;99.90;;;;;;4114231;28;20973;-63
2022/12/18 03:05:02;;;;;;;33.60;14.13;;;0.20;99.90;;;;;;4114276;28;20331;-65
2022/12/18 03:07:09;;;;;;;34.83;13.77;;;0.20;99.90;;;;;;4113697;28;20316;-62
2022/12/18 03:09:15;;;;;;;40.80;15.43;;;0.10;99.90;;;;;;4114128;28;20264;-64
2022/12/18 03:12:22;;;;;;;27.63;13.63;;;0.00;99.90;;;;;;4113856;28;20268;-60
2022/12/18 03:13:52;;;;;;;35.13;14.73;;;-0.10;99.90;;;;;;4114205;28;20320;-62
2022/12/18 03:15:56;;;;;;;31.90;15.97;;;-0.10;99.90;;;;;;4113428;28;20579;-64
2022/12/18 03:18:06;;;;;;;29.33;13.57;;;0.00;99.90;;;;;;4114228;28;20327;-64
2022/12/18 03:20:16;;;;;;;26.30;12.67;;;-0.10;99.90;;;;;;4112436;28;20785;-66
2022/12/18 03:22:18;;;;;;;27.43;12.43;;;0.00;99.90;;;;;;4114064;28;20284;-60
2022/12/18 03:24:21;;;;;;;30.73;12.70;;;0.00;99.90;;;;;;4113122;28;20317;-63
2022/12/18 03:26:26;;;;;;;31.40;14.47;;;-0.10;99.90;;;;;;4113963;28;20277;-61
2022/12/18 03:28:32;;;;;;;31.53;15.40;;;0.00;99.90;;;;;;4112864;28;20261;-61
2022/12/18 03:30:36;;;;;;;33.87;15.13;;;0.00;99.90;;;;;;4112798;28;20284;-64
2022/12/18 03:32:54;;;;;;;33.03;15.03;;;0.00;99.90;;;;;;4113744;28;20260;-59
2022/12/18 03:34:59;;;;;;;36.80;15.33;;;0.00;99.90;;;;;;4112949;28;20284;-61
2022/12/18 03:37:04;;;;;;;36.73;16.00;;;0.00;99.90;;;;;;4112887;28;20333;-61
2022/12/18 03:39:06;;;;;;;36.63;17.20;;;0.00;99.90;;;;;;4112820;28;20590;-63
2022/12/18 03:41:16;;;;;;;38.70;15.93;;;0.00;99.90;;;;;;4112908;28;20335;-64
2022/12/18 03:43:29;;;;;;;45.35;17.05;;;0.00;99.90;;;;;;4112623;28;20293;-65
2022/12/18 03:45:36;;;;;;;39.20;18.53;;;0.00;99.90;;;;;;4112899;28;20039;-64
2022/12/18 03:47:47;;;;;;;44.07;18.83;;;0.00;99.90;;;;;;4112604;28;20339;-62
2022/12/18 03:50:10;;;;;;;35.80;17.67;;;0.00;99.90;;;;;;4112959;28;20319;-61
2022/12/18 03:52:31;;;;;;;37.90;16.83;;;0.00;99.90;;;;;;4113122;28;20261;-60
2022/12/18 03:54:33;;;;;;;40.67;19.02;;;-0.10;99.90;;;;;;4112515;28;20269;-65
2022/12/18 03:56:40;;;;;;;45.70;19.60;;;-0.10;99.90;;;;;;4113058;28;20825;-61
2022/12/18 03:58:43;;;;;;;39.67;17.03;;;-0.20;99.90;;;;;;4113246;28;20602;-63
2022/12/18 04:00:45;;;;;;;45.27;17.00;;;-0.20;99.90;;;;;;4113152;28;20273;-65
2022/12/18 04:02:54;;;;;;;41.90;17.20;;;-0.20;99.90;;;;;;4112788;28;20355;-64
2022/12/18 04:04:59;;;;;;;37.43;15.53;;;-0.20;99.90;;;;;;4112756;28;20277;-66
2022/12/18 04:07:01;;;;;;;42.00;18.00;;;-0.30;99.90;;;;;;4112983;28;20726;-64
2022/12/18 04:09:03;;;;;;;36.97;16.20;;;-0.30;99.90;;;;;;4111675;28;20315;-64
2022/12/18 04:11:04;;;;;;;38.33;17.00;;;-0.20;99.90;;;;;;4112514;28;20264;-65
2022/12/18 04:13:05;;;;;;;34.03;16.23;;;-0.30;99.90;;;;;;4111046;28;20666;-62
2022/12/18 04:15:07;;;;;;;33.43;15.67;;;-0.30;99.90;;;;;;4113071;28;20359;-62
2022/12/18 04:17:08;;;;;;;40.37;18.03;;;-0.20;99.90;;;;;;4112138;28;20323;-59
2022/12/18 04:19:09;;;;;;;41.53;18.37;;;-0.30;99.90;;;;;;4113318;28;20335;-65
2022/12/18 04:21:10;;;;;;;44.63;19.83;;;-0.30;99.90;;;;;;4112200;28;20265;-62
2022/12/18 04:23:12;;;;;;;37.50;17.70;;;-0.30;99.90;;;;;;4112246;28;20340;-65
2022/12/18 04:25:13;;;;;;;39.30;18.40;;;-0.30;99.90;;;;;;4112811;28;20269;-57
2022/12/18 04:27:15;;;;;;;39.67;17.67;;;-0.30;99.90;;;;;;4112547;28;20296;-66
2022/12/18 04:29:16;;;;;;;46.43;19.30;;;-0.20;99.90;;;;;;4111601;28;20269;-60
2022/12/18 04:31:17;;;;;;;47.03;20.90;;;-0.30;99.90;;;;;;4112125;28;20272;-61
2022/12/18 04:33:18;;;;;;;42.10;19.57;;;-0.30;99.90;;;;;;4111779;28;20308;-59
2022/12/18 04:35:19;;;;;;;44.30;20.27;;;-0.30;99.90;;;;;;4112691;28;20269;-60
2022/12/18 04:37:20;;;;;;;40.93;18.80;;;-0.30;99.90;;;;;;4111614;28;20315;-61
2022/12/18 04:39:21;;;;;;;46.23;20.47;;;-0.30;99.90;;;;;;4112352;28;20332;-63
2022/12/18 04:41:23;;;;;;;47.23;18.57;;;-0.30;99.90;;;;;;4112812;28;20359;-60
2022/12/18 04:43:24;;;;;;;44.90;18.97;;;-0.30;99.90;;;;;;4111729;28;20862;-62
2022/12/18 04:45:25;;;;;;;44.33;19.90;;;-0.30;99.90;;;;;;4112834;28;20327;-63
2022/12/18 04:47:26;;;;;;;41.70;19.63;;;-0.30;99.90;;;;;;4112125;28;20315;-63
2022/12/18 04:49:27;;;;;;;48.57;19.17;;;-0.30;99.90;;;;;;4113316;28;20287;-59
2022/12/18 04:51:28;;;;;;;46.00;21.23;;;-0.30;99.90;;;;;;4110855;28;20273;-60
2022/12/18 04:53:29;;;;;;;47.80;20.53;;;-0.30;99.90;;;;;;4113242;28;20599;-63
2022/12/18 04:55:30;;;;;;;47.97;21.37;;;-0.30;99.90;;;;;;4112389;28;20265;-62
2022/12/18 04:57:31;;;;;;;47.50;21.13;;;-0.40;99.90;;;;;;4111581;28;20284;-59
2022/12/18 04:59:33;;;;;;;47.50;19.87;;;-0.30;99.90;;;;;;4112240;28;20252;-58
2022/12/18 05:01:34;;;;;;;47.30;21.97;;;-0.30;99.90;;;;;;4111596;28;20335;-63
2022/12/18 05:03:36;;;;;;;45.70;21.53;;;-0.30;99.90;;;;;;4112383;28;20296;-62
2022/12/18 05:05:37;;;;;;;46.77;20.13;;;-0.40;99.90;;;;;;4112168;28;20289;-61
2022/12/18 05:07:38;;;;;;;48.03;21.27;;;-0.30;99.90;;;;;;4112694;28;20257;-60
2022/12/18 05:09:40;;;;;;;46.33;20.90;;;-0.40;99.90;;;;;;4112133;28;20986;-64
2022/12/18 05:11:41;;;;;;;42.03;20.03;;;-0.30;99.90;;;;;;4112870;28;20324;-60
2022/12/18 05:13:44;;;;;;;53.80;22.30;;;-0.40;99.90;;;;;;4111478;28;20285;-61
2022/12/18 05:15:52;;;;;;;54.50;21.27;;;-0.40;99.90;;;;;;4112273;28;20716;-64
2022/12/18 05:17:53;;;;;;;45.63;19.03;;;-0.50;99.90;;;;;;4111076;28;20331;-56
2022/12/18 05:19:54;;;;;;;48.03;20.57;;;-0.60;99.90;;;;;;4112694;28;20681;-64
2022/12/18 05:21:55;;;;;;;44.37;20.20;;;-0.60;99.90;;;;;;4112423;28;20311;-60
2022/12/18 05:23:56;;;;;;;45.03;20.63;;;-0.60;99.90;;;;;;4116177;28;20697;-60
2022/12/18 05:26:00;;;;;;;50.03;23.13;;;-0.60;99.90;;;;;;4115420;28;20272;-65
2022/12/18 05:28:01;;;;;;;45.90;20.83;;;-0.50;99.90;;;;;;4115994;28;20692;-61
2022/12/18 05:30:02;;;;;;;48.13;19.97;;;-0.50;99.90;;;;;;4115038;28;20317;-57
2022/12/18 05:32:04;;;;;;;63.60;23.73;;;-0.60;99.90;;;;;;4115815;28;20361;-61
2022/12/18 05:34:05;;;;;;;50.53;22.50;;;-0.60;99.90;;;;;;4115156;28;20307;-61
2022/12/18 05:36:08;;;;;;;49.27;22.90;;;-0.60;99.90;;;;;;4115501;28;20740;-59
2022/12/18 05:38:09;;;;;;;48.90;22.07;;;-0.60;99.90;;;;;;4114143;28;20323;-62
2022/12/18 05:40:11;;;;;;;50.27;21.80;;;-0.60;99.90;;;;;;4114658;28;20781;-59
2022/12/18 05:42:12;;;;;;;48.43;20.47;;;-0.60;99.90;;;;;;4114457;28;20257;-64
2022/12/18 05:44:13;;;;;;;52.10;23.63;;;-0.50;99.90;;;;;;4114595;28;20297;-60
2022/12/18 05:46:17;;;;;;;54.17;23.63;;;-0.50;99.90;;;;;;4115492;28;20261;-57
2022/12/18 05:48:19;;;;;;;49.90;24.30;;;-0.50;99.90;;;;;;4113892;28;20634;-59
2022/12/18 05:50:20;;;;;;;50.43;22.90;;;-0.50;99.90;;;;;;4114796;28;21096;-59
2022/12/18 05:52:21;;;;;;;50.00;22.97;;;-0.50;99.90;;;;;;4114439;28;20272;-59
2022/12/18 05:54:22;;;;;;;51.23;23.13;;;-0.50;99.90;;;;;;4115743;28;20335;-59
2022/12/18 05:56:24;;;;;;;53.73;23.10;;;-0.50;99.90;;;;;;4097207;29;20402;-57
2022/12/18 05:58:25;;;;;;;52.63;23.30;;;-0.50;99.90;;;;;;4115208;28;20281;-58
2022/12/18 06:00:26;;;;;;;51.00;22.27;;;-0.50;99.90;;;;;;4114048;28;20269;-56
2022/12/18 06:02:27;;;;;;;50.67;22.97;;;-0.60;99.90;;;;;;4114474;28;20307;-59
2022/12/18 06:04:32;;;;;;;50.33;22.17;;;-0.60;99.90;;;;;;4095946;29;20285;-58
2022/12/18 06:06:33;;;;;;;53.30;24.23;;;-0.60;99.90;;;;;;4114921;28;20292;-59
2022/12/18 06:08:36;;;;;;;48.30;22.43;;;-0.60;99.90;;;;;;4114788;28;20253;-55
2022/12/18 06:10:37;;;;;;;51.20;21.43;;;-0.60;99.90;;;;;;4114638;28;20339;-60
2022/12/18 06:12:38;;;;;;;43.33;19.67;;;-0.60;99.90;;;;;;4114912;28;20269;-59
2022/12/18 06:14:40;;;;;;;53.43;21.43;;;-0.60;99.90;;;;;;4114513;28;20801;-60
2022/12/18 06:16:41;;;;;;;52.90;22.27;;;-0.60;99.90;;;;;;4114270;28;20273;-59
2022/12/18 06:18:42;;;;;;;47.77;19.90;;;-0.60;99.90;;;;;;4114023;28;20649;-58
2022/12/18 06:20:43;;;;;;;48.40;20.67;;;-0.60;99.90;;;;;;4114650;28;20273;-59
2022/12/18 06:22:44;;;;;;;50.93;21.50;;;-0.60;99.90;;;;;;4113880;28;20253;-59
2022/12/18 06:24:45;;;;;;;49.63;21.67;;;-0.60;99.90;;;;;;4115068;28;20368;-59
2022/12/18 06:26:46;;;;;;;45.67;20.13;;;-0.60;99.90;;;;;;4113994;28;20265;-58
2022/12/18 06:28:47;;;;;;;41.20;18.63;;;-0.60;99.90;;;;;;4114463;28;20292;-57
2022/12/18 06:30:49;;;;;;;46.80;20.60;;;-0.60;99.90;;;;;;4113090;28;20320;-60
2022/12/18 06:32:51;;;;;;;49.07;21.47;;;-0.50;99.90;;;;;;4114064;28;20315;-59
2022/12/18 06:34:53;;;;;;;49.07;20.80;;;-0.50;99.90;;;;;;4112821;28;20312;-58
2022/12/18 06:36:54;;;;;;;52.10;22.53;;;-0.60;99.90;;;;;;4114516;28;20780;-62
2022/12/18 06:38:56;;;;;;;50.10;21.27;;;-0.60;99.90;;;;;;4096164;29;20290;-57
2022/12/18 06:40:57;;;;;;;47.70;21.30;;;-0.50;99.90;;;;;;4113544;28;20813;-60
2022/12/18 06:42:58;;;;;;;56.23;23.27;;;-0.50;99.90;;;;;;4112950;28;20300;-59
2022/12/18 06:44:59;;;;;;;53.60;22.50;;;-0.50;99.90;;;;;;4114087;28;20273;-59
2022/12/18 06:47:00;;;;;;;46.50;21.57;;;-0.50;99.90;;;;;;4113416;28;20737;-59
2022/12/18 06:49:02;;;;;;;51.07;21.77;;;-0.50;99.90;;;;;;4112794;28;20273;-58
2022/12/18 06:51:03;;;;;;;51.07;20.87;;;-0.60;99.90;;;;;;4114396;28;20312;-57
2022/12/18 06:53:04;;;;;;;52.87;22.67;;;-0.60;99.90;;;;;;4113252;28;20269;-57
2022/12/18 06:55:09;;;;;;;54.37;23.47;;;-0.60;99.90;;;;;;4114754;28;20753;-58
2022/12/18 06:57:10;;;;;;;48.50;21.17;;;-0.60;99.90;;;;;;4113695;28;20277;-59
2022/12/18 06:59:12;;;;;;;54.53;21.13;;;-0.50;99.90;;;;;;4114110;28;20339;-59
2022/12/18 07:01:13;;;;;;;53.27;21.60;;;-0.60;99.90;;;;;;4112560;28;20293;-62
2022/12/18 07:03:14;;;;;;;52.53;23.00;;;-0.60;99.90;;;;;;4114108;28;20285;-59
2022/12/18 07:05:16;;;;;;;54.80;21.90;;;-0.50;99.90;;;;;;4112617;28;20308;-60
2022/12/18 07:07:17;;;;;;;50.83;20.40;;;-0.50;99.90;;;;;;4114284;28;20738;-60
2022/12/18 07:09:18;;;;;;;44.67;20.67;;;-0.40;99.90;;;;;;4113255;28;20692;-60
2022/12/18 07:11:19;;;;;;;49.13;20.23;;;-0.50;99.90;;;;;;4113926;28;20316;-62
2022/12/18 07:13:21;;;;;;;49.20;20.07;;;-0.40;99.90;;;;;;4113349;28;20393;-59
2022/12/18 07:15:22;;;;;;;44.63;19.53;;;-0.40;99.90;;;;;;4113244;28;20319;-59
2022/12/18 07:17:23;;;;;;;44.50;18.87;;;-0.40;99.90;;;;;;4112984;28;20344;-59
2022/12/18 07:19:24;;;;;;;44.43;19.63;;;-0.30;99.90;;;;;;4113055;28;20749;-58
2022/12/18 07:21:25;;;;;;;44.07;18.50;;;-0.30;99.90;;;;;;4113247;28;20265;-59
2022/12/18 07:23:26;;;;;;;39.20;17.27;;;-0.30;99.90;;;;;;4112780;28;20296;-61
2022/12/18 07:25:28;;;;;;;41.80;17.53;;;-0.30;99.90;;;;;;4114292;28;20269;-58
2022/12/18 07:27:29;;;;;;;42.03;17.73;;;-0.30;99.90;;;;;;4113178;28;20261;-59
2022/12/18 07:29:30;;;;;;;40.43;17.47;;;-0.20;99.90;;;;;;4113950;28;20320;-59
2022/12/18 07:31:31;;;;;;;35.10;17.03;;;-0.20;99.90;;;;;;4112324;28;20276;-59
2022/12/18 07:33:34;;;;;;;35.07;15.33;;;-0.20;99.90;;;;;;4113997;28;20269;-60
2022/12/18 07:35:38;;;;;;;36.90;16.10;;;-0.20;99.90;;;;;;4112762;28;20272;-58
2022/12/18 07:37:39;;;;;;;31.93;14.53;;;-0.20;99.90;;;;;;4114124;28;20339;-60
2022/12/18 07:39:40;;;;;;;38.50;17.70;;;-0.10;99.90;;;;;;4112628;28;20676;-60
2022/12/18 07:41:45;;;;;;;39.43;18.00;;;-0.10;99.90;;;;;;4113300;28;20419;-59
2022/12/18 07:43:47;;;;;;;39.10;17.20;;;-0.20;99.90;;;;;;4112197;28;21678;-61
2022/12/18 07:45:50;;;;;;;41.43;16.93;;;-0.10;99.90;;;;;;4111047;28;20284;-60
2022/12/18 07:47:51;;;;;;;36.70;16.87;;;-0.10;99.90;;;;;;4113110;28;20249;-60
2022/12/18 07:49:53;;;;;;;37.13;16.13;;;-0.20;99.90;;;;;;4112033;28;20276;-61
2022/12/18 07:51:55;;;;;;;38.53;17.23;;;-0.30;99.90;;;;;;4113291;28;20276;-61
2022/12/18 07:53:57;;;;;;;42.30;17.27;;;-0.30;99.90;;;;;;4111863;28;20273;-61
2022/12/18 07:55:59;;;;;;;40.33;18.27;;;-0.30;99.90;;;;;;4113787;28;20265;-61
2022/12/18 07:58:02;;;;;;;38.40;15.57;;;-0.20;99.90;;;;;;4112161;28;20681;-60
2022/12/18 08:00:04;;;;;;;37.13;16.03;;;-0.20;99.90;;;;;;4112630;28;20327;-60
2022/12/18 08:02:05;;;;;;;34.10;16.30;;;-0.30;99.90;;;;;;4112487;28;20252;-60
2022/12/18 08:04:06;;;;;;;38.40;18.03;;;-0.30;99.90;;;;;;4112575;28;20331;-59
2022/12/18 08:06:09;;;;;;;38.13;17.03;;;-0.20;99.90;;;;;;4111985;28;20769;-60
2022/12/18 08:08:11;;;;;;;34.67;16.23;;;-0.20;99.90;;;;;;4112535;28;20280;-60
2022/12/18 08:10:12;;;;;;;35.37;16.33;;;-0.20;99.90;;;;;;4107291;28;20285;-59
2022/12/18 08:12:13;;;;;;;40.37;17.03;;;-0.20;99.90;;;;;;4113130;28;20280;-61
2022/12/18 08:14:15;;;;;;;34.30;15.67;;;-0.20;99.90;;;;;;4099850;28;20289;-62
2022/12/18 08:16:16;;;;;;;38.70;18.00;;;-0.20;99.90;;;;;;4113139;28;20284;-60
2022/12/18 08:18:17;;;;;;;34.77;15.03;;;-0.20;99.90;;;;;;4111909;28;20280;-61
2022/12/18 08:20:18;;;;;;;44.03;15.73;;;-0.20;99.90;;;;;;4112123;28;20661;-61
2022/12/18 08:22:20;;;;;;;32.37;14.70;;;-0.20;99.90;;;;;;4112787;28;20282;-61
2022/12/18 08:24:21;;;;;;;38.33;15.77;;;-0.20;99.90;;;;;;4111757;28;20301;-60
2022/12/18 08:26:23;;;;;;;32.43;15.30;;;-0.20;99.90;;;;;;4113408;28;20281;-59
2022/12/18 08:28:24;;;;;;;29.87;14.03;;;0.00;99.90;;;;;;4112076;28;20285;-58
2022/12/18 08:30:25;;;;;;;33.07;15.00;;;0.10;99.90;;;;;;4112930;28;20272;-59
2022/12/18 08:32:27;;;;;;;32.43;14.53;;;0.00;99.90;;;;;;4111673;28;20734;-60
2022/12/18 08:34:28;;;;;;;33.47;14.80;;;0.00;99.90;;;;;;4111955;28;20856;-60
2022/12/18 08:36:29;;;;;;;32.00;14.10;;;0.10;99.90;;;;;;4111931;28;21040;-59
2022/12/18 08:38:32;;;;;;;29.00;13.57;;;0.10;99.90;;;;;;4111999;28;20724;-59
2022/12/18 08:40:33;;;;;;;28.87;13.77;;;0.10;99.90;;;;;;4110791;28;20746;-60
2022/12/18 08:44:54;;;;;;;27.07;13.03;;;0.00;99.90;;;;;;4112306;28;20370;-56
2022/12/18 08:46:55;;;;;;;31.13;13.30;;;0.00;99.90;;;;;;4112109;28;20335;-61
2022/12/18 08:48:56;;;;;;;32.00;14.70;;;0.00;99.90;;;;;;4111451;28;20775;-60
2022/12/18 08:50:59;;;;;;;25.83;12.17;;;0.00;99.90;;;;;;4111458;28;20285;-61
2022/12/18 08:53:00;;;;;;;30.67;14.77;;;-0.10;99.90;;;;;;4110834;28;20272;-61
2022/12/18 08:55:02;;;;;;;30.27;14.77;;;-0.20;99.90;;;;;;4112034;28;20285;-61
2022/12/18 08:57:03;;;;;;;28.80;13.10;;;-0.20;99.90;;;;;;4112372;28;20261;-59
2022/12/18 08:59:04;;;;;;;29.77;13.13;;;-0.10;99.90;;;;;;4111760;28;20827;-61
2022/12/18 09:01:09;;;;;;;26.47;13.23;;;-0.20;99.90;;;;;;4112189;28;20611;-61
2022/12/18 09:03:17;;;;;;;33.53;13.40;;;-0.10;99.90;;;;;;4110709;28;20426;-62
2022/12/18 09:05:20;;;;;;;30.57;14.00;;;-0.10;99.90;;;;;;4111228;28;20686;-62
2022/12/18 09:07:21;;;;;;;27.17;13.50;;;-0.10;99.90;;;;;;4110536;28;20272;-61
2022/12/18 09:09:22;;;;;;;27.53;12.43;;;-0.10;99.90;;;;;;4112216;28;20685;-62
2022/12/18 09:11:25;;;;;;;28.23;13.23;;;-0.10;99.90;;;;;;4111184;28;20323;-63
2022/12/18 09:13:27;;;;;;;34.17;13.70;;;-0.10;99.90;;;;;;4108200;28;20293;-62
2022/12/18 09:15:28;;;;;;;30.33;12.63;;;-0.10;99.90;;;;;;4111275;28;20273;-62
2022/12/18 09:17:29;;;;;;;37.50;14.73;;;-0.20;99.90;;;;;;4111489;28;20391;-61
2022/12/18 09:19:30;;;;;;;35.87;15.37;;;-0.20;99.90;;;;;;4094348;29;20348;-60
2022/12/18 09:21:34;;;;;;;30.10;14.30;;;-0.20;99.90;;;;;;4096247;29;20270;-60
2022/12/18 09:23:35;;;;;;;33.50;13.93;;;-0.20;99.90;;;;;;4102754;28;20636;-66
2022/12/18 09:25:37;;;;;;;31.47;13.23;;;-0.10;99.90;;;;;;4110977;28;20280;-61
2022/12/18 09:27:39;;;;;;;28.50;13.40;;;-0.20;99.90;;;;;;4112197;28;20252;-61
2022/12/18 09:29:40;;;;;;;40.03;13.83;;;-0.10;99.90;;;;;;4112355;28;20339;-60
2022/12/18 09:31:41;;;;;;;33.57;14.97;;;-0.10;99.90;;;;;;4111573;28;20764;-61
2022/12/18 09:33:42;;;;;;;34.37;14.70;;;-0.10;99.90;;;;;;4110910;28;20369;-61
2022/12/18 09:35:44;;;;;;;33.40;15.40;;;-0.10;99.90;;;;;;4111298;28;20265;-64
2022/12/18 09:37:46;;;;;;;28.37;13.03;;;-0.10;99.90;;;;;;4110867;28;20261;-60
2022/12/18 09:39:47;;;;;;;32.40;13.83;;;0.00;99.90;;;;;;4111208;28;20300;-67
2022/12/18 09:41:55;;;;;;;44.00;14.83;;;0.00;99.90;;;;;;4111551;28;20260;-72
2022/12/18 09:44:27;;;;;;;36.90;12.70;;;0.00;99.90;;;;;;4112672;28;20355;-70
2022/12/18 09:46:34;;;;;;;23.87;11.50;;;0.10;99.90;;;;;;4095135;28;20282;-65
2022/12/18 09:48:41;;;;;;;28.90;12.07;;;0.10;99.90;;;;;;4111777;28;20335;-72
2022/12/18 09:50:43;;;;;;;28.10;12.30;;;0.20;99.90;;;;;;4110909;28;20257;-65
2022/12/18 09:52:49;;;;;;;26.00;11.00;;;0.20;99.90;;;;;;4111907;28;20761;-68
2022/12/18 09:54:57;;;;;;;32.27;13.03;;;0.20;99.90;;;;;;4110441;28;20400;-64
2022/12/18 09:56:58;;;;;;;23.33;9.77;;;0.30;99.90;;;;;;4094136;28;20281;-66
2022/12/18 09:59:01;;;;;;;21.43;9.90;;;0.30;99.90;;;;;;4110706;28;20347;-62
2022/12/18 10:01:02;;;;;;;20.33;10.33;;;0.40;99.90;;;;;;4112015;28;20332;-62
2022/12/18 10:03:10;;;;;;;26.80;10.27;;;0.40;99.90;;;;;;4110798;28;20265;-64
2022/12/18 10:05:20;;;;;;;21.30;9.43;;;0.40;99.90;;;;;;4112593;28;20331;-71
2022/12/18 10:07:37;;;;;;;22.47;10.87;;;0.40;99.90;;;;;;4110516;28;20284;-66
2022/12/18 10:10:00;;;;;;;60.77;14.93;;;0.30;99.90;;;;;;4099508;29;20894;-66
2022/12/18 10:12:03;;;;;;;25.23;10.50;;;0.30;99.90;;;;;;4097731;29;20734;-64
2022/12/18 10:14:28;;;;;;;25.23;11.13;;;0.40;99.90;;;;;;4110730;28;20269;-72
2022/12/18 10:16:45;;;;;;;17.33;8.33;;;0.40;99.90;;;;;;4113478;28;20730;-66
2022/12/18 10:18:55;;;;;;;17.03;7.60;;;0.40;99.90;;;;;;4113374;28;20272;-63
2022/12/18 10:21:02;;;;;;;14.25;6.68;;;0.40;99.90;;;;;;4112702;28;20343;-62
2022/12/18 10:23:12;;;;;;;12.07;6.03;;;0.50;99.90;;;;;;4111142;28;20042;-64
2022/12/18 10:25:24;;;;;;;12.23;5.33;;;0.50;99.90;;;;;;4113259;28;20359;-63
2022/12/18 10:27:27;;;;;;;9.90;4.93;;;0.60;99.90;;;;;;4114452;28;20347;-66
2022/12/18 10:29:28;;;;;;;17.33;5.73;;;0.70;99.90;;;;;;4111140;28;20292;-66
2022/12/18 10:31:29;;;;;;;10.27;5.20;;;0.80;99.90;;;;;;4117064;28;20269;-61
2022/12/18 10:33:33;;;;;;;10.50;5.50;;;0.80;99.90;;;;;;4095388;28;20277;-66
2022/12/18 10:35:36;;;;;;;9.03;4.77;;;0.90;99.90;;;;;;4113012;28;20771;-68